createdAt,value
2022-08-10T00:02:18.705Z,11.66
2022-08-10T00:04:48.467Z,11.57
2022-08-10T00:07:18.291Z,11.53
2022-08-10T00:09:50.741Z,11.52
2022-08-10T00:12:22.206Z,11.46
2022-08-10T00:15:52.559Z,11.47
2022-08-10T00:18:04.479Z,11.44
2022-08-10T00:20:34.349Z,11.42
2022-08-10T00:23:03.653Z,11.42
2022-08-10T00:25:33.504Z,11.39
2022-08-10T00:28:04.222Z,11.39
2022-08-10T00:30:34.467Z,11.39
2022-08-10T00:33:04.285Z,11.32
2022-08-10T00:35:33.612Z,11.36
2022-08-10T00:38:03.660Z,11.26
2022-08-10T00:40:35.432Z,11.16
2022-08-10T00:43:09.410Z,11.16
2022-08-10T00:45:40.352Z,11.11
2022-08-10T00:48:10.710Z,10.99
2022-08-10T00:50:40.567Z,10.98
2022-08-10T00:53:10.390Z,10.89
2022-08-10T00:57:15.244Z,10.89
2022-08-10T00:58:31.381Z,10.89
2022-08-10T01:01:01.711Z,10.84
2022-08-10T01:04:39.790Z,10.79
2022-08-10T01:06:54.484Z,10.79
2022-08-10T01:09:33.365Z,10.75
2022-08-10T01:12:47.654Z,10.72
2022-08-10T01:15:26.456Z,10.64
2022-08-10T01:18:12.656Z,10.65
2022-08-10T01:21:19.197Z,10.60
2022-08-10T01:24:00.789Z,10.54
2022-08-10T01:27:11.801Z,10.50
2022-08-10T01:30:09.395Z,10.50
2022-08-10T01:32:39.307Z,10.46
2022-08-10T01:35:36.731Z,10.48
2022-08-10T01:38:20.163Z,10.47
2022-08-10T01:41:12.506Z,10.40
2022-08-10T01:43:49.884Z,10.44
2022-08-10T01:46:24.070Z,10.43
2022-08-10T01:48:57.101Z,10.41
2022-08-10T01:52:00.596Z,10.40
2022-08-10T01:54:32.335Z,10.48
2022-08-10T01:57:04.473Z,10.51
2022-08-10T01:59:40.507Z,10.56
2022-08-10T02:02:11.569Z,10.53
2022-08-10T02:04:44.906Z,10.53
2022-08-10T02:07:18.898Z,10.58
2022-08-10T02:09:52.673Z,10.54
2022-08-10T02:12:26.121Z,10.54
2022-08-10T02:15:02.632Z,10.51
2022-08-10T02:17:58.056Z,10.47
2022-08-10T02:20:32.967Z,10.51
2022-08-10T02:23:20.293Z,10.53
2022-08-10T02:25:51.597Z,10.53
2022-08-10T02:28:30.104Z,10.54
2022-08-10T02:31:23.021Z,10.61
2022-08-10T02:33:59.538Z,10.63
2022-08-10T02:36:30.952Z,10.60
2022-08-10T02:39:06.031Z,10.60
2022-08-10T02:45:12.914Z,10.57
2022-08-10T02:45:25.560Z,10.63
2022-08-10T02:48:02.997Z,10.64
2022-08-10T02:50:38.258Z,10.65
2022-08-10T02:53:54.377Z,10.64
2022-08-10T02:56:13.560Z,10.72
2022-08-10T02:58:46.846Z,10.71
2022-08-10T03:01:22.436Z,10.71
2022-08-10T03:04:00.395Z,10.71
2022-08-10T03:06:37.246Z,10.72
2022-08-10T03:09:11.118Z,10.75
2022-08-10T03:12:37.293Z,10.72
2022-08-10T03:14:35.574Z,10.84
2022-08-10T03:17:07.269Z,10.85
2022-08-10T03:20:35.453Z,10.89
2022-08-10T03:22:29.597Z,10.91
2022-08-10T03:25:01.051Z,10.91
2022-08-10T03:27:32.031Z,10.96
2022-08-10T03:30:29.784Z,10.99
2022-08-10T03:32:54.673Z,11.02
2022-08-10T03:35:25.786Z,11.06
2022-08-10T03:37:59.735Z,11.04
2022-08-10T03:40:45.990Z,11.09
2022-08-10T03:43:23.640Z,11.15
2022-08-10T03:45:56.681Z,11.12
2022-08-10T03:48:44.623Z,11.11
2022-08-10T03:51:21.430Z,11.12
2022-08-10T03:54:05.524Z,11.14
2022-08-10T03:56:39.231Z,11.11
2022-08-10T03:59:12.451Z,11.12
2022-08-10T04:02:46.488Z,11.16
2022-08-10T04:04:36.582Z,11.16
2022-08-10T04:07:07.081Z,11.16
2022-08-10T04:09:53.475Z,11.20
2022-08-10T04:12:26.085Z,11.26
2022-08-10T04:14:56.229Z,11.29
2022-08-10T04:18:05.168Z,11.29
2022-08-10T04:20:34.936Z,11.27
2022-08-10T04:23:13.816Z,11.23
2022-08-10T04:25:44.251Z,11.18
2022-08-10T04:28:14.495Z,11.14
2022-08-10T04:30:46.198Z,11.09
2022-08-10T04:33:19.358Z,11.06
2022-08-10T04:35:50.997Z,11.06
2022-08-10T04:38:22.786Z,11.09
2022-08-10T04:40:53.408Z,11.09
2022-08-10T04:43:23.679Z,11.12
2022-08-10T04:45:53.415Z,11.12
2022-08-10T04:48:40.700Z,11.15
2022-08-10T04:51:19.157Z,11.14
2022-08-10T04:54:03.845Z,11.15
2022-08-10T04:56:41.138Z,11.15
2022-08-10T04:59:12.677Z,11.14
2022-08-10T05:02:29.351Z,11.14
2022-08-10T05:04:37.449Z,11.20
2022-08-10T05:07:18.608Z,11.20
2022-08-10T05:10:02.276Z,11.22
2022-08-10T05:12:41.044Z,11.25
2022-08-10T05:15:13.719Z,11.26
2022-08-10T05:18:08.799Z,11.23
2022-08-10T05:20:34.618Z,11.22
2022-08-10T05:23:04.376Z,11.22
2022-08-10T05:25:38.093Z,11.20
2022-08-10T05:28:08.596Z,11.22
2022-08-10T05:30:38.538Z,11.19
2022-08-10T05:33:09.010Z,11.20
2022-08-10T05:35:55.510Z,11.25
2022-08-10T05:38:29.456Z,11.26
2022-08-10T05:41:01.228Z,11.26
2022-08-10T05:43:31.172Z,11.23
2022-08-10T05:46:17.339Z,11.19
2022-08-10T05:48:56.678Z,11.20
2022-08-10T05:51:29.316Z,11.20
2022-08-10T05:54:05.108Z,11.25
2022-08-10T05:56:55.902Z,11.25
2022-08-10T06:00:33.082Z,11.26
2022-08-10T06:02:35.685Z,11.29
2022-08-10T06:05:11.687Z,11.30
2022-08-10T06:08:18.123Z,11.29
2022-08-10T06:12:16.537Z,11.27
2022-08-10T06:14:13.876Z,11.27
2022-08-10T06:16:47.675Z,11.27
2022-08-10T06:19:18.695Z,11.30
2022-08-10T06:22:01.052Z,11.32
2022-08-10T06:24:32.786Z,11.32
2022-08-10T06:27:02.834Z,11.35
2022-08-10T06:29:35.229Z,11.36
2022-08-10T06:32:07.166Z,11.35
2022-08-10T06:34:52.276Z,11.36
2022-08-10T06:37:27.090Z,11.30
2022-08-10T06:39:57.579Z,11.29
2022-08-10T06:42:53.778Z,11.30
2022-08-10T06:45:29.589Z,11.30
2022-08-10T06:48:33.461Z,11.32
2022-08-10T06:51:19.309Z,11.39
2022-08-10T06:53:55.057Z,11.37
2022-08-10T06:56:36.745Z,11.40
2022-08-10T06:59:21.942Z,11.43
2022-08-10T07:02:02.312Z,11.47
2022-08-10T07:04:54.097Z,11.44
2022-08-10T07:07:28.812Z,11.49
2022-08-10T07:10:02.137Z,11.49
2022-08-10T07:12:33.388Z,11.46
2022-08-10T07:15:04.806Z,11.47
2022-08-10T07:17:39.248Z,11.46
2022-08-10T07:20:11.472Z,11.44
2022-08-10T07:23:27.113Z,11.42
2022-08-10T07:25:34.425Z,11.40
2022-08-10T07:28:05.308Z,11.36
2022-08-10T07:30:42.393Z,11.33
2022-08-10T07:33:19.903Z,11.30
2022-08-10T07:35:51.537Z,11.27
2022-08-10T07:38:28.292Z,11.25
2022-08-10T07:41:04.351Z,11.25
2022-08-10T07:43:36.599Z,11.27
2022-08-10T07:46:11.011Z,11.29
2022-08-10T07:48:52.817Z,11.29
2022-08-10T07:51:25.052Z,11.37
2022-08-10T07:53:57.049Z,11.40
2022-08-10T07:56:47.990Z,11.40
2022-08-10T07:59:24.090Z,11.30
2022-08-10T08:01:57.164Z,11.19
2022-08-10T08:04:28.177Z,11.16
2022-08-10T08:07:01.179Z,11.12
2022-08-10T08:09:32.909Z,11.09
2022-08-10T08:12:05.116Z,11.09
2022-08-10T08:14:36.527Z,11.08
2022-08-10T08:17:07.702Z,11.08
2022-08-10T08:19:46.058Z,11.08
2022-08-10T08:24:09.124Z,11.04
2022-08-10T08:25:18.119Z,11.05
2022-08-10T08:27:53.994Z,11.05
2022-08-10T08:30:26.748Z,11.05
2022-08-10T08:33:00.187Z,11.09
2022-08-10T08:35:31.366Z,11.06
2022-08-10T08:38:33.237Z,11.09
2022-08-10T08:41:18.914Z,11.11
2022-08-10T08:44:23.355Z,11.12
2022-08-10T08:48:02.339Z,11.12
2022-08-10T08:50:16.988Z,11.14
2022-08-10T08:52:58.269Z,11.12
2022-08-10T08:56:04.022Z,11.11
2022-08-10T08:59:13.413Z,11.09
2022-08-10T09:01:55.135Z,11.08
2022-08-10T09:04:30.836Z,11.12
2022-08-10T09:07:59.114Z,11.11
2022-08-10T09:10:42.196Z,11.14
2022-08-10T09:13:27.814Z,11.15
2022-08-10T09:16:23.021Z,11.15
2022-08-10T09:19:35.682Z,11.16
2022-08-10T09:22:19.549Z,11.16
2022-08-10T09:25:22.489Z,11.15
2022-08-10T09:28:04.559Z,11.16
2022-08-10T09:36:23.163Z,11.16
2022-08-10T09:38:03.357Z,11.19
2022-08-10T09:41:09.119Z,11.16
2022-08-10T09:44:10.879Z,11.14
2022-08-10T09:46:59.244Z,11.14
2022-08-10T09:49:59.792Z,11.11
2022-08-10T09:52:58.676Z,11.12
2022-08-10T09:56:17.109Z,11.08
2022-08-10T10:00:00.217Z,11.11
2022-08-10T10:02:23.609Z,11.11
2022-08-10T10:05:30.617Z,11.14
2022-08-10T10:08:06.293Z,11.16
2022-08-10T10:10:57.573Z,11.16
2022-08-10T10:14:01.700Z,11.16
2022-08-10T10:17:04.472Z,11.19
2022-08-10T10:19:49.786Z,11.23
2022-08-10T10:22:44.958Z,11.30
2022-08-10T10:25:50.737Z,11.32
2022-08-10T10:29:19.635Z,11.33
2022-08-10T10:31:52.014Z,11.37
2022-08-10T10:34:49.688Z,11.42
2022-08-10T10:38:01.557Z,11.56
2022-08-10T10:40:16.703Z,11.52
2022-08-10T10:43:02.118Z,11.53
2022-08-10T10:45:50.113Z,11.56
2022-08-10T10:48:29.384Z,11.56
2022-08-10T10:51:25.404Z,11.59
2022-08-10T10:54:12.255Z,11.59
2022-08-10T10:57:05.634Z,11.62
2022-08-10T11:00:03.590Z,11.62
2022-08-10T11:02:50.803Z,11.62
2022-08-10T11:05:42.216Z,11.66
2022-08-10T11:08:41.089Z,11.69
2022-08-10T11:11:59.889Z,11.69
2022-08-10T11:14:29.676Z,11.74
2022-08-10T11:17:13.511Z,11.80
2022-08-10T11:20:04.007Z,11.83
2022-08-10T11:22:58.715Z,11.90
2022-08-10T11:25:40.325Z,11.91
2022-08-10T11:28:21.660Z,11.99
2022-08-10T11:30:58.446Z,12.05
2022-08-10T11:34:11.522Z,12.18
2022-08-10T11:36:51.018Z,12.17
2022-08-10T11:39:57.712Z,12.21
2022-08-10T11:42:49.187Z,12.35
2022-08-10T11:45:32.593Z,12.42
2022-08-10T11:48:52.953Z,12.59
2022-08-10T11:51:10.481Z,12.63
2022-08-10T11:54:12.358Z,12.69
2022-08-10T11:56:58.494Z,12.72
2022-08-10T11:59:58.098Z,12.73
2022-08-10T12:02:37.689Z,12.77
2022-08-10T12:05:13.319Z,12.75
2022-08-10T12:09:17.413Z,12.70
2022-08-10T12:10:40.850Z,12.69
2022-08-10T12:13:25.381Z,12.69
2022-08-10T12:16:11.483Z,12.76
2022-08-10T12:18:53.502Z,12.80
2022-08-10T12:21:53.842Z,12.86
2022-08-10T12:24:27.505Z,12.87
2022-08-10T12:27:18.302Z,12.96
2022-08-10T12:30:04.936Z,13.13
2022-08-10T12:32:34.943Z,13.24
2022-08-10T12:36:01.645Z,13.30
2022-08-10T12:39:03.240Z,13.28
2022-08-10T12:41:44.553Z,13.24
2022-08-10T12:44:21.963Z,13.34
2022-08-10T12:47:14.403Z,13.54
2022-08-10T12:50:23.793Z,13.65
2022-08-10T12:52:52.158Z,13.78
2022-08-10T12:55:24.261Z,13.72
2022-08-10T12:57:57.344Z,13.71
2022-08-10T13:00:41.607Z,13.71
2022-08-10T13:04:21.915Z,13.72
2022-08-10T13:06:17.836Z,13.63
2022-08-10T13:09:07.286Z,13.66
2022-08-10T13:12:36.796Z,13.66
2022-08-10T13:14:59.327Z,13.73
2022-08-10T13:17:39.496Z,13.98
2022-08-10T13:20:38.343Z,14.16
2022-08-10T13:23:16.024Z,14.14
2022-08-10T13:25:49.945Z,14.14
2022-08-10T13:28:35.790Z,14.12
2022-08-10T13:31:17.022Z,14.05
2022-08-10T13:34:39.592Z,14.14
2022-08-10T13:36:51.216Z,13.96
2022-08-10T13:39:26.139Z,14.06
2022-08-10T13:41:57.807Z,14.27
2022-08-10T13:44:39.813Z,14.54
2022-08-10T13:47:13.631Z,14.45
2022-08-10T13:49:53.646Z,14.19
2022-08-10T13:52:27.739Z,14.31
2022-08-10T13:55:01.731Z,14.72
2022-08-10T13:57:38.379Z,15.18
2022-08-10T14:00:35.506Z,15.53
2022-08-10T14:03:12.836Z,15.47
2022-08-10T14:05:52.246Z,15.68
2022-08-10T14:08:27.493Z,15.78
2022-08-10T14:11:11.567Z,15.70
2022-08-10T14:13:53.020Z,15.46
2022-08-10T14:16:24.051Z,15.23
2022-08-10T14:19:01.916Z,15.13
2022-08-10T14:21:32.032Z,15.25
2022-08-10T14:24:02.313Z,15.54
2022-08-10T14:26:33.434Z,16.52
2022-08-10T14:29:18.873Z,17.06
2022-08-10T14:32:01.507Z,17.73
2022-08-10T14:36:05.072Z,17.36
2022-08-10T14:37:49.562Z,17.41
2022-08-10T14:40:29.809Z,17.07
2022-08-10T14:43:08.171Z,16.69
2022-08-10T14:45:40.932Z,16.66
2022-08-10T14:48:19.045Z,17.28
2022-08-10T14:50:59.365Z,17.27
2022-08-10T14:53:35.599Z,17.78
2022-08-10T14:56:13.518Z,18.36
2022-08-10T14:58:59.101Z,18.73
2022-08-10T15:02:00.721Z,18.37
2022-08-10T15:04:30.707Z,18.41
2022-08-10T15:07:24.157Z,18.48
2022-08-10T15:10:01.113Z,18.92
2022-08-10T15:12:36.548Z,18.92
2022-08-10T15:15:09.855Z,19.37
2022-08-10T15:17:45.722Z,19.68
2022-08-10T15:20:22.638Z,20.67
2022-08-10T15:22:55.537Z,19.89
2022-08-10T15:25:27.144Z,21.08
2022-08-10T15:28:11.760Z,21.03
2022-08-10T15:30:53.167Z,21.42
2022-08-10T15:34:06.851Z,21.25
2022-08-10T15:37:35.925Z,20.11
2022-08-10T15:40:24.087Z,19.37
2022-08-10T15:42:58.393Z,19.79
2022-08-10T15:45:29.170Z,19.29
2022-08-10T15:48:06.155Z,19.33
2022-08-10T15:50:42.848Z,19.97
2022-08-10T15:53:15.808Z,20.93
2022-08-10T15:55:58.371Z,20.30
2022-08-10T15:58:40.451Z,19.12
2022-08-10T16:02:14.243Z,19.43
2022-08-10T16:04:09.062Z,21.08
2022-08-10T16:07:10.752Z,20.53
2022-08-10T16:10:22.695Z,19.10
2022-08-10T16:13:00.099Z,19.45
2022-08-10T16:15:33.073Z,18.54
2022-08-10T16:18:09.837Z,17.93
2022-08-10T16:21:01.609Z,17.55
2022-08-10T16:23:35.530Z,17.52
2022-08-10T16:26:14.893Z,16.94
2022-08-10T16:29:01.308Z,19.36
2022-08-10T16:31:36.025Z,20.79
2022-08-10T16:34:15.268Z,20.04
2022-08-10T16:37:08.420Z,18.85
2022-08-10T16:40:00.127Z,17.78
2022-08-10T16:42:34.012Z,18.16
2022-08-10T16:45:13.502Z,19.00
2022-08-10T16:47:52.063Z,18.55
2022-08-10T16:50:39.814Z,20.42
2022-08-10T16:53:14.300Z,19.67
2022-08-10T16:55:57.798Z,20.26
2022-08-10T16:58:34.062Z,20.28
2022-08-10T17:01:13.001Z,21.66
2022-08-10T17:04:08.145Z,23.01
2022-08-10T17:07:00.595Z,23.15
2022-08-10T17:09:36.674Z,22.24
2022-08-10T17:12:12.610Z,23.46
2022-08-10T17:14:44.489Z,21.17
2022-08-10T17:17:21.253Z,20.39
2022-08-10T17:19:53.265Z,20.69
2022-08-10T17:22:26.552Z,20.45
2022-08-10T17:25:09.250Z,20.86
2022-08-10T17:28:05.224Z,20.50
2022-08-10T17:30:36.925Z,23.39
2022-08-10T17:33:29.239Z,22.37
2022-08-10T17:36:05.141Z,19.81
2022-08-10T17:38:39.415Z,20.43
2022-08-10T17:41:14.168Z,20.12
2022-08-10T17:44:02.806Z,22.52
2022-08-10T17:46:42.803Z,22.07
2022-08-10T17:49:15.295Z,21.00
2022-08-10T17:51:52.147Z,21.37
2022-08-10T17:54:45.380Z,19.87
2022-08-10T17:57:22.399Z,18.89
2022-08-10T17:59:55.297Z,19.23
2022-08-10T18:02:28.420Z,21.07
2022-08-10T18:05:03.980Z,19.70
2022-08-10T18:07:36.682Z,19.37
2022-08-10T18:10:10.889Z,19.54
2022-08-10T18:12:54.645Z,20.53
2022-08-10T18:15:28.498Z,20.77
2022-08-10T18:18:02.855Z,22.03
2022-08-10T18:20:38.919Z,22.13
2022-08-10T18:23:09.716Z,20.88
2022-08-10T18:25:45.233Z,19.91
2022-08-10T18:28:20.635Z,18.47
2022-08-10T18:30:56.221Z,17.66
2022-08-10T18:33:36.980Z,17.17
2022-08-10T18:36:09.444Z,20.80
2022-08-10T18:38:41.716Z,25.07
2022-08-10T18:41:16.975Z,26.87
2022-08-10T18:44:08.412Z,27.09
2022-08-10T18:46:57.601Z,26.87
2022-08-10T18:49:41.470Z,20.98
2022-08-10T18:52:16.465Z,18.75
2022-08-10T18:54:49.947Z,22.10
2022-08-10T18:57:36.926Z,25.34
2022-08-10T19:00:14.889Z,26.60
2022-08-10T19:03:18.523Z,27.69
2022-08-10T19:06:12.664Z,27.22
2022-08-10T19:08:48.994Z,27.20
2022-08-10T19:11:42.778Z,25.81
2022-08-10T19:14:32.945Z,25.72
2022-08-10T19:17:23.707Z,25.14
2022-08-10T19:20:14.492Z,23.88
2022-08-10T19:22:50.100Z,19.70
2022-08-10T19:26:37.803Z,17.99
2022-08-10T19:28:49.016Z,17.42
2022-08-10T19:31:43.909Z,17.15
2022-08-10T19:34:40.436Z,16.95
2022-08-10T19:37:32.364Z,16.84
2022-08-10T19:40:05.728Z,16.66
2022-08-10T19:42:49.402Z,16.44
2022-08-10T19:46:01.203Z,16.16
2022-08-10T19:48:47.232Z,15.95
2022-08-10T19:51:55.600Z,15.83
2022-08-10T19:54:39.498Z,15.73
2022-08-10T19:57:24.113Z,15.73
2022-08-10T20:00:22.782Z,15.76
2022-08-10T20:02:57.196Z,15.83
2022-08-10T20:05:28.164Z,15.94
2022-08-10T20:08:11.161Z,15.95
2022-08-10T20:11:11.694Z,16.05
2022-08-10T20:14:23.561Z,15.97
2022-08-10T20:17:44.819Z,15.83
2022-08-10T20:20:31.295Z,15.60
2022-08-10T20:23:17.500Z,15.36
2022-08-10T20:26:12.655Z,15.10
2022-08-10T20:28:54.902Z,14.91
2022-08-10T20:31:34.440Z,14.72
2022-08-10T20:34:11.141Z,14.48
2022-08-10T20:36:50.095Z,14.33
2022-08-10T20:40:02.008Z,14.19
2022-08-10T20:42:49.898Z,13.82
2022-08-10T20:45:26.357Z,13.79
2022-08-10T20:48:32.746Z,13.80
2022-08-10T20:51:08.523Z,13.68
2022-08-10T20:54:02.178Z,13.47
2022-08-10T20:56:47.017Z,13.22
2022-08-10T20:59:23.485Z,13.13
2022-08-10T21:02:51.274Z,13.07
2022-08-10T21:05:23.968Z,13.13
2022-08-10T21:08:20.953Z,13.14
2022-08-10T21:11:00.379Z,13.04
2022-08-10T21:13:55.631Z,12.97
2022-08-10T21:16:52.258Z,12.84
2022-08-10T21:19:40.122Z,12.77
2022-08-10T21:22:34.272Z,12.64
2022-08-10T21:25:15.666Z,12.55
2022-08-10T21:28:33.410Z,12.55
2022-08-10T21:31:22.067Z,12.45
2022-08-10T21:34:19.390Z,12.48
2022-08-10T21:37:07.988Z,12.52
2022-08-10T21:39:52.812Z,12.64
2022-08-10T21:43:02.641Z,12.80
2022-08-10T21:46:24.476Z,12.69
2022-08-10T21:49:36.924Z,12.55
2022-08-10T21:52:40.615Z,12.42
2022-08-10T21:55:58.137Z,12.22
2022-08-10T21:58:53.691Z,12.26
2022-08-10T22:02:06.983Z,12.41
2022-08-10T22:04:54.927Z,12.52
2022-08-10T22:07:45.825Z,12.56
2022-08-10T22:10:38.696Z,12.56
2022-08-10T22:13:28.371Z,12.69
2022-08-10T22:16:28.697Z,12.79
2022-08-10T22:19:20.343Z,12.83
2022-08-10T22:22:31.351Z,12.93
2022-08-10T22:25:46.702Z,13.00
2022-08-10T22:28:40.331Z,13.11
2022-08-10T22:31:39.924Z,13.07
2022-08-10T22:34:39.615Z,13.06
2022-08-10T22:37:56.241Z,12.99
2022-08-10T22:40:44.908Z,12.89
2022-08-10T22:43:43.418Z,12.83
2022-08-10T22:46:43.120Z,12.70
2022-08-10T22:49:13.236Z,12.53
2022-08-10T22:52:04.003Z,12.36
2022-08-10T22:55:11.022Z,12.22
2022-08-10T22:58:09.941Z,12.20
2022-08-10T23:00:40.609Z,12.25
2022-08-10T23:03:21.798Z,12.21
2022-08-10T23:05:54.344Z,12.15
2022-08-10T23:08:33.761Z,12.08
2022-08-10T23:11:09.865Z,12.05
2022-08-10T23:13:45.833Z,12.02
2022-08-10T23:16:40.274Z,11.94
2022-08-10T23:19:32.860Z,11.83
2022-08-10T23:22:09.768Z,11.80
2022-08-10T23:25:22.907Z,11.71
2022-08-10T23:28:12.268Z,11.54
2022-08-10T23:30:45.247Z,11.46
2022-08-10T23:33:38.109Z,11.42
2022-08-10T23:36:34.160Z,11.26
2022-08-10T23:39:26.747Z,11.15
2022-08-10T23:42:06.364Z,11.09
2022-08-10T23:44:43.048Z,10.99
2022-08-10T23:47:15.753Z,10.92
2022-08-10T23:49:47.873Z,10.88
2022-08-10T23:52:21.941Z,10.87
2022-08-10T23:54:57.029Z,10.88
2022-08-10T23:57:29.356Z,10.87
